Time;durP1;ratioP1;P1;durP2;ratioP2;P2;SDS_P1;SDS_P2;PMS_P1;PMS_P2;Temp;Humidity;BMP_temperature;BMP_pressure;BME280_temperature;BME280_humidity;BME280_pressure;Samples;Min_cycle;Max_cycle;Signal;HPM_P1;HPM_P2
2022/10/03 00:02:06;;;;;;;8.88;1.67;;;;;;;-147.98;100.00;69253.78;5051742;28;20505;-84
2022/10/03 00:04:52;;;;;;;8.13;1.58;;;;;;;-147.98;100.00;69253.78;5060658;28;20417;-83
2022/10/03 00:07:42;;;;;;;9.40;1.98;;;;;;;-147.98;100.00;69253.78;5071293;28;20064;-83
2022/10/03 00:10:28;;;;;;;9.30;1.98;;;;;;;-147.98;100.00;69253.78;5069150;28;20413;-83
2022/10/03 00:13:17;;;;;;;8.65;1.80;;;;;;;-147.98;100.00;69253.78;5041500;28;20049;-83
2022/10/03 00:16:02;;;;;;;3.65;1.13;;;;;;;-147.98;100.00;69253.78;5062147;28;20073;-84
2022/10/03 00:18:46;;;;;;;7.60;1.48;;;;;;;-147.98;100.00;69253.78;5061520;28;20053;-83
2022/10/03 00:21:32;;;;;;;5.97;1.30;;;;;;;-147.98;100.00;69253.78;5072700;28;20041;-82
2022/10/03 00:24:19;;;;;;;4.32;1.13;;;;;;;-147.98;100.00;69253.78;5046998;28;20060;-83
2022/10/03 00:26:57;;;;;;;6.28;1.58;;;;;;;-147.98;100.00;69253.78;5047323;28;20057;-83
2022/10/03 00:29:46;;;;;;;9.65;1.45;;;;;;;-147.98;100.00;69253.78;5058172;28;20052;-82
2022/10/03 00:32:35;;;;;;;7.38;1.40;;;;;;;-147.98;100.00;69253.78;5048814;28;20041;-82
2022/10/03 00:35:23;;;;;;;9.20;1.67;;;;;;;-147.98;100.00;69253.78;5063833;28;20436;-83
2022/10/03 00:38:08;;;;;;;6.32;1.73;;;;;;;-147.98;100.00;69253.78;5076077;28;20037;-82
2022/10/03 00:41:05;;;;;;;11.07;2.05;;;;;;;-147.98;100.00;69253.78;5042921;28;20048;-83
2022/10/03 00:44:05;;;;;;;12.07;1.52;;;;;;;-147.98;100.00;69253.78;5072411;28;20393;-83
2022/10/03 00:46:59;;;;;;;5.43;1.25;;;;;;;-147.98;100.00;69253.78;5003659;28;20228;-83
2022/10/03 00:49:53;;;;;;;6.40;1.60;;;;;;;-147.98;100.00;69253.78;5066522;28;20040;-83
2022/10/03 00:52:51;;;;;;;6.97;1.30;;;;;;;-147.98;100.00;69253.78;5045354;28;20044;-82
2022/10/03 00:55:30;;;;;;;7.00;1.60;;;;;;;-147.98;100.00;69253.78;5040465;28;20500;-82
2022/10/03 00:58:21;;;;;;;5.93;1.27;;;;;;;-147.98;100.00;69253.78;5048780;28;20057;-84
2022/10/03 01:01:05;;;;;;;5.10;1.25;;;;;;;-147.98;100.00;69253.78;5064647;28;20040;-83
2022/10/03 01:03:46;;;;;;;3.15;1.08;;;;;;;-147.98;100.00;69253.78;5048533;28;20056;-83
2022/10/03 01:06:32;;;;;;;5.00;1.33;;;;;;;-147.98;100.00;69253.78;5053797;28;20059;-83
2022/10/03 01:09:22;;;;;;;13.35;2.13;;;;;;;-147.98;100.00;69253.78;5076162;28;20051;-84
2022/10/03 01:12:10;;;;;;;7.05;1.63;;;;;;;-147.98;100.00;69253.78;5054192;28;20049;-82
2022/10/03 01:14:58;;;;;;;5.40;1.40;;;;;;;-147.98;100.00;69253.78;5073410;28;20065;-82
2022/10/03 01:17:46;;;;;;;9.35;1.90;;;;;;;-147.98;100.00;69253.78;5065583;28;20071;-83
2022/10/03 01:20:28;;;;;;;7.47;1.67;;;;;;;-147.98;100.00;69253.78;5051896;28;20382;-82
2022/10/03 01:23:45;;;;;;;9.13;1.70;;;;;;;-147.98;100.00;69253.78;5056411;28;20056;-82
2022/10/03 01:26:52;;;;;;;5.30;1.23;;;;;;;-147.98;100.00;69253.78;5049258;28;20052;-83
2022/10/03 01:32:25;;;;;;;9.02;2.15;;;;;;;-147.98;100.00;69253.78;5043326;28;20512;-83
2022/10/03 01:35:11;;;;;;;6.40;1.83;;;;;;;-147.98;100.00;69253.78;5056290;28;20041;-82
2022/10/03 01:37:53;;;;;;;4.82;1.58;;;;;;;-147.98;100.00;69253.78;5078535;28;20048;-83
2022/10/03 01:40:31;;;;;;;6.93;1.35;;;;;;;-147.98;100.00;69253.78;5050230;28;20052;-82
2022/10/03 01:43:19;;;;;;;7.85;1.38;;;;;;;-147.98;100.00;69253.78;5049976;28;20049;-83
2022/10/03 01:46:07;;;;;;;5.60;1.20;;;;;;;-147.98;100.00;69253.78;5072863;28;20044;-84
2022/10/03 01:48:51;;;;;;;7.85;1.63;;;;;;;-147.98;100.00;69253.78;5057261;28;20044;-83
2022/10/03 01:51:29;;;;;;;7.45;1.80;;;;;;;-147.98;100.00;69253.78;5076903;28;20052;-83
2022/10/03 01:54:16;;;;;;;8.75;1.77;;;;;;;-147.98;100.00;69253.78;5051726;28;20488;-84
2022/10/03 01:56:57;;;;;;;10.20;1.60;;;;;;;-147.98;100.00;69253.78;5064633;28;20047;-83
2022/10/03 01:59:41;;;;;;;10.68;1.85;;;;;;;-147.98;100.00;69253.78;5042197;28;20429;-83
2022/10/03 02:02:25;;;;;;;11.70;1.58;;;;;;;-147.98;100.00;69253.78;5045393;28;20057;-82
2022/10/03 02:05:08;;;;;;;14.02;1.58;;;;;;;-147.98;100.00;69253.78;5064749;28;20055;-83
2022/10/03 02:07:50;;;;;;;8.30;1.52;;;;;;;-147.98;100.00;69253.78;5056030;28;20044;-82
2022/10/03 02:10:32;;;;;;;14.45;2.28;;;;;;;-147.98;100.00;69253.78;5066300;28;20037;-82
2022/10/03 02:13:13;;;;;;;7.90;1.67;;;;;;;-147.98;100.00;69253.78;5061506;28;20051;-83
2022/10/03 02:16:02;;;;;;;5.00;1.20;;;;;;;-147.98;100.00;69253.78;5041135;28;20048;-83
2022/10/03 02:18:45;;;;;;;7.40;2.17;;;;;;;-147.98;100.00;69253.78;5042850;28;20044;-82
2022/10/03 02:21:20;;;;;;;3.42;0.93;;;;;;;-147.98;100.00;69253.78;5062733;28;20044;-82
2022/10/03 02:24:18;;;;;;;6.80;1.27;;;;;;;-147.98;100.00;69253.78;5053209;28;20051;-83
2022/10/03 02:27:28;;;;;;;2.40;0.93;;;;;;;-147.98;100.00;69253.78;5049364;28;20520;-82
2022/10/03 02:30:21;;;;;;;6.93;1.80;;;;;;;-147.98;100.00;69253.78;5067304;28;20045;-83
2022/10/03 02:33:47;;;;;;;10.52;1.95;;;;;;;-147.98;100.00;69253.78;5061937;28;20393;-84
2022/10/03 02:36:47;;;;;;;9.63;1.70;;;;;;;-147.98;100.00;69253.78;5028367;28;20049;-84
2022/10/03 02:39:46;;;;;;;5.07;1.10;;;;;;;-147.98;100.00;69253.78;5023818;28;20053;-83
2022/10/03 02:42:50;;;;;;;3.97;1.40;;;;;;;-147.98;100.00;69253.78;5068714;28;20497;-83
2022/10/03 02:46:02;;;;;;;7.20;1.75;;;;;;;-147.98;100.00;69253.78;5060304;28;20055;-83
2022/10/03 02:48:58;;;;;;;3.60;1.10;;;;;;;-147.98;100.00;69253.78;5022674;28;20052;-83
2022/10/03 02:51:59;;;;;;;6.43;1.15;;;;;;;-147.98;100.00;69253.78;5064968;28;20056;-83
2022/10/03 02:54:56;;;;;;;7.35;1.38;;;;;;;-147.98;100.00;69253.78;5072400;28;20041;-83
2022/10/03 02:58:12;;;;;;;7.25;2.00;;;;;;;-147.98;100.00;69253.78;5056519;28;20052;-82
2022/10/03 03:01:18;;;;;;;3.60;1.20;;;;;;;-147.98;100.00;69253.78;5048297;28;20053;-84
2022/10/03 03:04:23;;;;;;;8.93;1.52;;;;;;;-147.98;100.00;69253.78;5062791;28;20064;-83
2022/10/03 03:07:29;;;;;;;6.93;1.73;;;;;;;-147.98;100.00;69253.78;5023769;28;20422;-83
2022/10/03 03:10:32;;;;;;;7.72;1.15;;;;;;;-147.98;100.00;69253.78;5057792;28;20048;-83
2022/10/03 03:13:37;;;;;;;7.15;1.40;;;;;;;-147.98;100.00;69253.78;5065893;28;20051;-83
2022/10/03 03:17:01;;;;;;;8.65;1.40;;;;;;;-147.98;100.00;69253.78;5061369;28;20045;-83
2022/10/03 03:19:51;;;;;;;5.03;1.42;;;;;;;-147.98;100.00;69253.78;4983289;28;20057;-83
2022/10/03 03:22:35;;;;;;;4.28;1.40;;;;;;;-147.98;100.00;69253.78;4985468;28;20054;-83
2022/10/03 03:25:21;;;;;;;6.43;1.23;;;;;;;-147.98;100.00;69253.78;5053296;28;20431;-83
2022/10/03 03:28:11;;;;;;;11.23;1.52;;;;;;;-147.98;100.00;69253.78;5048463;28;20045;-83
2022/10/03 03:30:58;;;;;;;6.97;1.67;;;;;;;-147.98;100.00;69253.78;5066482;28;20039;-82
2022/10/03 03:33:44;;;;;;;7.18;1.80;;;;;;;-147.98;100.00;69253.78;5063182;28;20718;-82
2022/10/03 03:36:28;;;;;;;12.32;1.63;;;;;;;-147.98;100.00;69253.78;5043488;28;20045;-83
2022/10/03 03:39:13;;;;;;;6.57;1.70;;;;;;;-147.98;100.00;69253.78;5065548;28;20401;-83
2022/10/03 03:42:01;;;;;;;17.10;2.03;;;;;;;-147.98;100.00;69253.78;5058705;28;20056;-82
2022/10/03 03:45:00;;;;;;;5.25;1.25;;;;;;;-147.98;100.00;69253.78;5065993;28;20036;-82
2022/10/03 03:47:56;;;;;;;9.85;1.77;;;;;;;-147.98;100.00;69253.78;5057760;28;20056;-83
2022/10/03 03:50:46;;;;;;;2.97;1.00;;;;;;;-147.98;100.00;69253.78;5060692;28;20492;-82
2022/10/03 03:53:49;;;;;;;5.00;1.55;;;;;;;-147.98;100.00;69253.78;5073986;28;20087;-82
2022/10/03 03:56:41;;;;;;;6.63;1.63;;;;;;;-147.98;100.00;69253.78;5059065;28;20045;-83
2022/10/03 03:59:27;;;;;;;6.60;1.40;;;;;;;-147.98;100.00;69253.78;5062174;28;20047;-83
2022/10/03 04:02:20;;;;;;;7.53;2.17;;;;;;;-147.98;100.00;69253.78;5047983;28;20052;-83
2022/10/03 04:05:09;;;;;;;9.27;1.73;;;;;;;-147.98;100.00;69253.78;5060496;28;20051;-82
2022/10/03 04:07:56;;;;;;;5.50;1.88;;;;;;;-147.98;100.00;69253.78;5059465;28;20052;-83
2022/10/03 04:10:42;;;;;;;4.33;1.83;;;;;;;-147.98;100.00;69253.78;5047491;28;20059;-83
2022/10/03 04:13:47;;;;;;;5.03;1.33;;;;;;;-147.98;100.00;69253.78;5061147;28;20305;-82
2022/10/03 04:19:50;;;;;;;7.28;1.45;;;;;;;-147.98;100.00;69253.78;5064969;28;20032;-82
2022/10/03 04:22:50;;;;;;;8.23;1.75;;;;;;;-147.98;100.00;69253.78;5070453;28;20037;-82
2022/10/03 04:25:42;;;;;;;3.97;1.13;;;;;;;-147.98;100.00;69253.78;5042293;28;20063;-83
2022/10/03 04:28:37;;;;;;;6.75;1.48;;;;;;;-147.98;100.00;69253.78;5058584;28;20055;-84
2022/10/03 04:31:30;;;;;;;6.35;1.80;;;;;;;-147.98;100.00;69253.78;5064316;28;20048;-84
2022/10/03 04:34:20;;;;;;;11.98;1.90;;;;;;;-147.98;100.00;69253.78;5038604;28;20079;-82
2022/10/03 04:37:08;;;;;;;10.10;1.75;;;;;;;-147.98;100.00;69253.78;5065530;28;20052;-84
2022/10/03 04:39:46;;;;;;;6.60;1.45;;;;;;;-147.98;100.00;69253.78;5056069;28;20052;-83
2022/10/03 04:42:28;;;;;;;5.28;1.25;;;;;;;-147.98;100.00;69253.78;5064655;28;20073;-82
2022/10/03 04:45:12;;;;;;;6.75;1.88;;;;;;;-147.98;100.00;69253.78;5040845;28;20044;-84
2022/10/03 04:47:53;;;;;;;6.25;1.35;;;;;;;-147.98;100.00;69253.78;5061861;28;20052;-84
2022/10/03 04:50:31;;;;;;;5.22;1.33;;;;;;;-147.98;100.00;69253.78;5046881;28;20056;-83
2022/10/03 04:53:21;;;;;;;8.43;1.88;;;;;;;-147.98;100.00;69253.78;5040552;28;20528;-84
2022/10/03 04:56:06;;;;;;;7.82;1.52;;;;;;;-147.98;100.00;69253.78;5060447;28;20520;-83
2022/10/03 04:58:49;;;;;;;6.70;1.73;;;;;;;-147.98;100.00;69253.78;5063449;28;20037;-83
2022/10/03 05:01:30;;;;;;;7.70;1.38;;;;;;;-147.98;100.00;69253.78;5046670;28;20041;-84
2022/10/03 05:04:11;;;;;;;5.45;1.80;;;;;;;-147.98;100.00;69253.78;5045650;28;20044;-82
2022/10/03 05:06:56;;;;;;;8.25;1.40;;;;;;;-147.98;100.00;69253.78;5063271;28;20056;-83
2022/10/03 05:09:37;;;;;;;5.68;1.27;;;;;;;-147.98;100.00;69253.78;5063708;28;20052;-83
2022/10/03 05:12:16;;;;;;;8.38;1.70;;;;;;;-147.98;100.00;69253.78;5049217;28;20064;-84
2022/10/03 05:15:06;;;;;;;6.95;1.63;;;;;;;-147.98;100.00;69253.78;5057794;28;20040;-82
2022/10/03 05:17:46;;;;;;;10.10;2.10;;;;;;;-147.98;100.00;69253.78;5070340;28;20441;-83
2022/10/03 05:20:37;;;;;;;8.07;2.05;;;;;;;-147.98;100.00;69253.78;5068181;28;20501;-84
2022/10/03 05:23:23;;;;;;;6.30;1.90;;;;;;;-147.98;100.00;69253.78;5048278;28;20052;-83
2022/10/03 05:26:06;;;;;;;3.78;1.88;;;;;;;-147.98;100.00;69253.78;5064503;28;20044;-83
2022/10/03 05:28:49;;;;;;;5.50;1.77;;;;;;;-147.98;100.00;69253.78;5046098;28;20053;-83
2022/10/03 05:31:46;;;;;;;4.53;1.52;;;;;;;-147.98;100.00;69253.78;5072490;28;20048;-83
2022/10/03 05:34:29;;;;;;;;;;;;;;;-147.98;100.00;69253.78;5070570;28;20048;-84
2022/10/03 05:37:20;;;;;;;7.07;1.42;;;;;;;-147.98;100.00;69253.78;5070825;28;20266;-82
2022/10/03 05:39:58;;;;;;;6.68;1.50;;;;;;;-147.98;100.00;69253.78;5059956;28;20059;-82
2022/10/03 05:42:52;;;;;;;11.48;1.95;;;;;;;-147.98;100.00;69253.78;5067278;28;20048;-83
2022/10/03 05:45:30;;;;;;;5.25;1.70;;;;;;;-147.98;100.00;69253.78;5065185;28;20059;-83
2022/10/03 05:48:20;;;;;;;4.88;1.40;;;;;;;-147.98;100.00;69253.78;5048385;28;20053;-83
2022/10/03 05:51:19;;;;;;;6.90;1.60;;;;;;;-147.98;100.00;69253.78;5046632;28;20505;-82
2022/10/03 05:54:24;;;;;;;12.68;1.65;;;;;;;-147.98;100.00;69253.78;5055405;28;20052;-83
2022/10/03 05:57:19;;;;;;;7.35;1.67;;;;;;;-147.98;100.00;69253.78;5045304;28;20052;-83
2022/10/03 06:00:09;;;;;;;8.27;1.88;;;;;;;-147.98;100.00;69253.78;5052087;28;20067;-83
2022/10/03 06:03:12;;;;;;;3.85;1.40;;;;;;;-147.98;100.00;69253.78;5048723;28;20055;-82
2022/10/03 06:06:00;;;;;;;9.25;1.98;;;;;;;-147.98;100.00;69253.78;5062879;28;20044;-83
2022/10/03 06:09:16;;;;;;;5.35;1.48;;;;;;;-147.98;100.00;69253.78;5062292;28;20512;-84
2022/10/03 06:11:59;;;;;;;8.48;2.17;;;;;;;-147.98;100.00;69253.78;5064390;28;20067;-83
2022/10/03 06:14:45;;;;;;;11.35;2.20;;;;;;;-147.98;100.00;69253.78;5066980;28;20055;-83
2022/10/03 06:17:39;;;;;;;8.70;1.85;;;;;;;-147.98;100.00;69253.78;5060613;28;20041;-85
2022/10/03 06:20:32;;;;;;;8.88;1.98;;;;;;;-147.98;100.00;69253.78;5064669;28;20404;-87
2022/10/03 06:23:26;;;;;;;4.80;1.60;;;;;;;-147.98;100.00;69253.78;5057298;28;20045;-85
2022/10/03 06:26:34;;;;;;;7.57;2.03;;;;;;;-147.98;100.00;69253.78;5062248;28;20036;-85
2022/10/03 06:29:41;;;;;;;4.88;1.90;;;;;;;-147.98;100.00;69253.78;5043792;28;20060;-84
2022/10/03 06:32:24;;;;;;;;;;;;;;;-147.98;100.00;69253.78;5080011;28;20048;-85
2022/10/03 06:35:33;;;;;;;3.92;1.50;;;;;;;-147.98;100.00;69253.78;5069385;28;19929;-83
2022/10/03 06:38:41;;;;;;;3.50;1.75;;;;;;;-147.98;100.00;69253.78;5060091;28;20497;-85
2022/10/03 06:41:34;;;;;;;8.45;2.60;;;;;;;-147.98;100.00;69253.78;5046763;28;20052;-85
2022/10/03 06:44:14;;;;;;;5.55;1.85;;;;;;;-147.98;100.00;69253.78;5078314;28;20044;-84
2022/10/03 06:47:05;;;;;;;5.43;1.75;;;;;;;-147.98;100.00;69253.78;5075182;28;20049;-83
2022/10/03 06:50:00;;;;;;;7.15;2.20;;;;;;;-147.98;100.00;69253.78;5069160;28;20044;-82
2022/10/03 06:52:50;;;;;;;5.57;2.05;;;;;;;-147.98;100.00;69253.78;5061694;28;20049;-83
2022/10/03 06:56:11;;;;;;;11.70;2.53;;;;;;;-147.98;100.00;69253.78;5082296;28;20056;-83
2022/10/03 06:59:13;;;;;;;5.10;1.55;;;;;;;-147.98;100.00;69253.78;5050560;28;20048;-83
2022/10/03 07:02:10;;;;;;;5.07;1.50;;;;;;;-147.98;100.00;69253.78;5063963;28;20041;-84
2022/10/03 07:05:25;;;;;;;4.85;2.15;;;;;;;-147.98;100.00;69253.78;5054191;28;20048;-85
2022/10/03 07:08:36;;;;;;;12.00;2.85;;;;;;;-147.98;100.00;69253.78;5049871;28;20064;-82
2022/10/03 07:11:33;;;;;;;11.07;2.90;;;;;;;-147.98;100.00;69253.78;4997897;28;20044;-85
2022/10/03 07:14:38;;;;;;;6.50;2.20;;;;;;;-147.98;100.00;69253.78;5067557;28;20041;-84
2022/10/03 07:17:25;;;;;;;7.53;2.53;;;;;;;-147.98;100.00;69253.78;5050121;28;20044;-83
2022/10/03 07:20:11;;;;;;;9.00;2.10;;;;;;;-147.98;100.00;69253.78;5066290;28;20048;-83
2022/10/03 07:23:20;;;;;;;10.15;2.22;;;;;;;-147.98;100.00;69253.78;5063757;28;20492;-83
2022/10/03 07:26:35;;;;;;;8.10;2.53;;;;;;;-147.98;100.00;69253.78;5055686;28;20040;-83
2022/10/03 07:29:17;;;;;;;4.15;2.00;;;;;;;-147.98;100.00;69253.78;5054368;28;20531;-83
2022/10/03 07:32:21;;;;;;;8.07;2.38;;;;;;;-147.98;100.00;69253.78;5078993;28;20040;-83
2022/10/03 07:35:15;;;;;;;7.47;2.28;;;;;;;-147.98;100.00;69253.78;5063996;28;20739;-83
2022/10/03 07:41:32;;;;;;;6.32;2.30;;;;;;;-147.98;100.00;69253.78;5036265;28;20053;-82
2022/10/03 07:44:41;;;;;;;5.20;1.92;;;;;;;-147.98;100.00;69253.78;5043778;28;20048;-83
2022/10/03 07:47:52;;;;;;;6.20;2.35;;;;;;;-147.98;100.00;69253.78;5025285;28;20056;-84
2022/10/03 07:50:47;;;;;;;5.55;1.90;;;;;;;-147.98;100.00;69253.78;5023913;28;20067;-84
2022/10/03 07:53:50;;;;;;;7.93;2.22;;;;;;;-147.98;100.00;69253.78;5023577;28;20057;-83
2022/10/03 07:56:53;;;;;;;5.10;1.90;;;;;;;-147.98;100.00;69253.78;5048493;28;20057;-83
2022/10/03 08:00:01;;;;;;;7.20;2.55;;;;;;;-147.98;100.00;69253.78;5041514;28;20620;-82
2022/10/03 08:03:28;;;;;;;3.20;1.75;;;;;;;-147.98;100.00;69253.78;5028730;28;20052;-82
2022/10/03 08:06:25;;;;;;;10.43;2.42;;;;;;;-147.98;100.00;69253.78;5042897;28;20059;-83
2022/10/03 08:09:26;;;;;;;10.23;2.40;;;;;;;-147.98;100.00;69253.78;5043619;28;20401;-83
2022/10/03 08:12:43;;;;;;;5.28;1.63;;;;;;;-147.98;100.00;69253.78;5036255;28;20040;-84
2022/10/03 08:15:25;;;;;;;;;;;;;;;-147.98;100.00;69253.78;5023650;28;20713;-82
2022/10/03 08:18:22;;;;;;;6.93;2.53;;;;;;;-147.98;100.00;69253.78;5036841;28;19935;-82
2022/10/03 08:20:54;;;;;;;9.52;2.67;;;;;;;-147.98;100.00;69253.78;5020509;28;20057;-83
2022/10/03 08:24:04;;;;;;;8.82;2.25;;;;;;;-147.98;100.00;69253.78;5040756;28;20033;-84
2022/10/03 08:26:56;;;;;;;11.07;2.33;;;;;;;-147.98;100.00;69253.78;5041969;28;20662;-84
2022/10/03 08:30:02;;;;;;;8.68;2.55;;;;;;;-147.98;100.00;69253.78;5037658;28;20515;-85
2022/10/03 08:32:56;;;;;;;5.68;2.00;;;;;;;-147.98;100.00;69253.78;5015913;28;20433;-81
2022/10/03 08:35:52;;;;;;;8.13;2.25;;;;;;;-147.98;100.00;69253.78;5041004;28;20048;-83
2022/10/03 08:38:45;;;;;;;9.82;2.30;;;;;;;-147.98;100.00;69253.78;5045838;28;20060;-84
2022/10/03 08:41:50;;;;;;;6.65;1.92;;;;;;;-147.98;100.00;69253.78;5045226;28;20043;-82
2022/10/03 08:45:02;;;;;;;6.35;1.80;;;;;;;-147.98;100.00;69253.78;5044685;28;20048;-83
2022/10/03 08:48:26;;;;;;;12.10;2.15;;;;;;;-147.98;100.00;69253.78;4999834;28;20057;-82
2022/10/03 08:51:17;;;;;;;5.40;2.13;;;;;;;-147.98;100.00;69253.78;5041951;28;20060;-84
2022/10/03 08:54:07;;;;;;;9.07;2.70;;;;;;;-147.98;100.00;69253.78;5043319;28;20057;-84
2022/10/03 08:56:56;;;;;;;4.13;1.60;;;;;;;-147.98;100.00;69253.78;5035389;28;20336;-84
2022/10/03 09:00:03;;;;;;;4.25;1.98;;;;;;;-147.98;100.00;69253.78;5035920;28;20059;-82
2022/10/03 09:03:04;;;;;;;7.82;2.00;;;;;;;-147.98;100.00;69253.78;5048578;28;20051;-83
2022/10/03 09:06:23;;;;;;;8.32;1.90;;;;;;;-147.98;100.00;69253.78;5034787;28;20477;-84
2022/10/03 09:09:27;;;;;;;8.73;1.90;;;;;;;-147.98;100.00;69253.78;5036394;28;20458;-82
2022/10/03 09:12:22;;;;;;;10.80;2.25;;;;;;;-147.98;100.00;69253.78;5032398;28;20431;-83
2022/10/03 09:15:10;;;;;;;12.02;2.17;;;;;;;-147.98;100.00;69253.78;5030595;28;20438;-81
2022/10/03 09:18:20;;;;;;;10.98;2.13;;;;;;;-147.98;100.00;69253.78;5023612;28;20662;-82
2022/10/03 09:21:33;;;;;;;10.73;2.00;;;;;;;-147.98;100.00;69253.78;5033720;28;20455;-82
2022/10/03 09:24:23;;;;;;;9.35;1.90;;;;;;;-147.98;100.00;69253.78;5041210;28;20431;-83
2022/10/03 09:27:24;;;;;;;10.02;1.90;;;;;;;-147.98;100.00;69253.78;5049565;28;20415;-83
2022/10/03 09:30:41;;;;;;;10.05;1.77;;;;;;;-147.98;100.00;69253.78;5024851;28;20845;-82
2022/10/03 09:33:45;;;;;;;10.68;1.85;;;;;;;-147.98;100.00;69253.78;4964806;28;20423;-81
2022/10/03 09:36:42;;;;;;;13.60;2.10;;;;;;;-147.98;100.00;69253.78;4978027;28;20956;-82
2022/10/03 09:39:41;;;;;;;8.75;1.80;;;;;;;-147.98;100.00;69253.78;5046845;28;20438;-83
2022/10/03 09:42:37;;;;;;;11.20;1.98;;;;;;;-147.98;100.00;69253.78;5035344;28;20475;-83
2022/10/03 09:45:23;;;;;;;13.70;2.05;;;;;;;-147.98;100.00;69253.78;5049873;28;20444;-83
2022/10/03 09:48:31;;;;;;;10.93;1.90;;;;;;;-147.98;100.00;69253.78;5041975;28;20435;-83
2022/10/03 09:51:21;;;;;;;11.73;1.67;;;;;;;-147.98;100.00;69253.78;5040418;28;20447;-83
2022/10/03 09:54:35;;;;;;;10.48;2.10;;;;;;;-147.98;100.00;69253.78;5033842;28;20415;-82
2022/10/03 09:57:43;;;;;;;12.30;2.08;;;;;;;-147.98;100.00;69253.78;5045458;28;20431;-83
2022/10/03 10:00:26;;;;;;;11.68;1.83;;;;;;;-147.98;100.00;69253.78;5014911;28;20424;-83
2022/10/03 10:03:31;;;;;;;11.05;2.10;;;;;;;-147.98;100.00;69253.78;5037972;28;20424;-85
2022/10/03 10:06:36;;;;;;;10.85;1.60;;;;;;;-147.98;100.00;69253.78;5020031;28;20427;-84
2022/10/03 10:09:46;;;;;;;10.15;2.08;;;;;;;-147.98;100.00;69253.78;5040189;28;20428;-83
2022/10/03 10:13:04;;;;;;;8.27;1.48;;;;;;;-147.98;100.00;69253.78;5023094;28;20431;-83
2022/10/03 10:16:07;;;;;;;8.63;1.58;;;;;;;-147.98;100.00;69253.78;5037930;28;21629;-84
2022/10/03 10:19:14;;;;;;;9.13;1.60;;;;;;;-147.98;100.00;69253.78;5030220;28;20431;-82
2022/10/03 10:22:09;;;;;;;9.48;1.65;;;;;;;-147.98;100.00;69253.78;5021250;28;20427;-84
2022/10/03 10:25:16;;;;;;;10.45;1.52;;;;;;;-147.98;100.00;69253.78;5033203;28;20428;-83
2022/10/03 10:28:12;;;;;;;8.68;1.42;;;;;;;-147.98;100.00;69253.78;5036906;28;20431;-83
2022/10/03 10:31:16;;;;;;;10.77;1.83;;;;;;;-147.98;100.00;69253.78;5050138;28;20435;-83
2022/10/03 10:34:22;;;;;;;7.60;1.50;;;;;;;-147.98;100.00;69253.78;5035261;28;20433;-84
2022/10/03 10:37:32;;;;;;;8.77;1.60;;;;;;;-147.98;100.00;69253.78;5028524;28;20430;-83
2022/10/03 10:40:30;;;;;;;12.23;1.88;;;;;;;-147.98;100.00;69253.78;5042853;28;20455;-83
2022/10/03 10:43:34;;;;;;;10.63;1.88;;;;;;;-147.98;100.00;69253.78;5012802;28;20432;-83
2022/10/03 10:46:31;;;;;;;8.27;1.80;;;;;;;-147.98;100.00;69253.78;5011182;28;20431;-82
2022/10/03 10:49:39;;;;;;;9.93;1.60;;;;;;;-147.98;100.00;69253.78;5028282;28;20435;-83
2022/10/03 10:52:50;;;;;;;7.82;1.60;;;;;;;-147.98;100.00;69253.78;5030046;28;20952;-84
2022/10/03 10:56:03;;;;;;;8.00;1.47;;;;;;;-147.98;100.00;69253.78;5034953;28;20431;-85
2022/10/03 10:59:28;;;;;;;10.43;1.90;;;;;;;-147.98;100.00;69253.78;5017284;28;20447;-83
2022/10/03 11:02:52;;;;;;;11.10;1.55;;;;;;;-147.98;100.00;69253.78;5009491;28;21224;-83
2022/10/03 11:05:41;;;;;;;11.35;2.20;;;;;;;-147.98;100.00;69253.78;5050423;28;20792;-85
2022/10/03 11:08:50;;;;;;;9.43;1.60;;;;;;;-147.98;100.00;69253.78;5039976;28;20786;-83
2022/10/03 11:12:02;;;;;;;10.43;1.70;;;;;;;-147.98;100.00;69253.78;5033080;28;20431;-85
2022/10/03 11:15:22;;;;;;;10.05;1.50;;;;;;;-147.98;100.00;69253.78;5011040;28;20420;-81
2022/10/03 11:18:18;;;;;;;5.32;1.20;;;;;;;-147.98;100.00;69253.78;5037077;28;20435;-80
2022/10/03 11:21:45;;;;;;;8.48;1.50;;;;;;;-147.98;100.00;69253.78;5031899;28;20430;-84
2022/10/03 11:24:57;;;;;;;6.72;1.30;;;;;;;-147.98;100.00;69253.78;5031656;28;20427;-82
2022/10/03 11:28:05;;;;;;;6.00;1.15;;;;;;;-147.98;100.00;69253.78;5024886;28;20848;-81
2022/10/03 11:31:24;;;;;;;8.57;1.40;;;;;;;-147.98;100.00;69253.78;5033403;28;20435;-82
2022/10/03 11:34:43;;;;;;;9.40;1.30;;;;;;;-147.98;100.00;69253.78;5038190;28;20431;-81
2022/10/03 11:37:32;;;;;;;7.78;1.40;;;;;;;-147.98;100.00;69253.78;4968249;28;20436;-80
2022/10/03 11:40:30;;;;;;;9.68;1.75;;;;;;;-147.98;100.00;69253.78;5045308;28;20440;-81
2022/10/03 11:43:24;;;;;;;7.30;1.30;;;;;;;-147.98;100.00;69253.78;5048898;28;20430;-81
2022/10/03 11:46:13;;;;;;;11.03;1.53;;;;;;;-147.98;100.00;69253.78;5038158;28;21013;-81
2022/10/03 11:48:46;;;;;;;8.73;1.50;;;;;;;-147.98;100.00;69253.78;5012663;28;20431;-81
2022/10/03 11:51:31;;;;;;;9.18;1.30;;;;;;;-147.98;100.00;69253.78;5012531;28;20435;-80
2022/10/03 11:54:19;;;;;;;5.10;1.10;;;;;;;-147.98;100.00;69253.78;5019017;28;20443;-82
2022/10/03 11:57:01;;;;;;;8.23;1.30;;;;;;;-147.98;100.00;69253.78;5015913;28;20428;-81
2022/10/03 11:59:54;;;;;;;10.00;1.25;;;;;;;-147.98;100.00;69253.78;5023229;28;20435;-81
2022/10/03 12:02:52;;;;;;;5.55;1.17;;;;;;;-147.98;100.00;69253.78;5010227;28;21435;-82
2022/10/03 12:05:37;;;;;;;11.23;1.50;;;;;;;-147.98;100.00;69253.78;5032641;28;20435;-84
2022/10/03 12:11:17;;;;;;;8.20;1.50;;;;;;;-147.98;100.00;69253.78;5019660;28;20446;-85
2022/10/03 12:14:06;;;;;;;8.85;1.33;;;;;;;-147.98;100.00;69253.78;5023546;28;20518;-85
2022/10/03 12:16:56;;;;;;;12.82;1.35;;;;;;;-147.98;100.00;69253.78;5042738;28;20419;-85
2022/10/03 12:19:36;;;;;;;9.30;1.50;;;;;;;-147.98;100.00;69253.78;5024249;28;20784;-84
2022/10/03 12:22:17;;;;;;;6.97;1.27;;;;;;;-147.98;100.00;69253.78;5058894;28;20431;-84
2022/10/03 12:24:57;;;;;;;11.60;1.42;;;;;;;-147.98;100.00;69253.78;5066593;28;20419;-84
2022/10/03 12:27:41;;;;;;;8.18;1.50;;;;;;;-147.98;100.00;69253.78;5064895;28;20423;-85
2022/10/03 12:30:18;;;;;;;6.70;1.40;;;;;;;-147.98;100.00;69253.78;5073721;28;20418;-85
2022/10/03 12:32:59;;;;;;;7.33;1.30;;;;;;;-147.98;100.00;69253.78;5064642;28;20423;-86
2022/10/03 12:35:43;;;;;;;8.07;1.83;;;;;;;-147.98;100.00;69253.78;5068723;28;20629;-86
2022/10/03 12:38:38;;;;;;;7.43;1.60;;;;;;;-147.98;100.00;69253.78;5054026;28;20419;-86
2022/10/03 12:41:24;;;;;;;6.83;1.37;;;;;;;-147.98;100.00;69253.78;5047242;28;20489;-83
2022/10/03 12:44:16;;;;;;;6.23;1.23;;;;;;;-147.98;100.00;69253.78;5021344;28;21065;-84
2022/10/03 12:46:54;;;;;;;5.50;1.20;;;;;;;-147.98;100.00;69253.78;5028839;28;20800;-83
2022/10/03 12:49:43;;;;;;;9.40;1.55;;;;;;;-147.98;100.00;69253.78;5042671;28;20443;-86
2022/10/03 12:52:23;;;;;;;6.80;1.45;;;;;;;-147.98;100.00;69253.78;5042088;28;20454;-82
2022/10/03 12:55:11;;;;;;;6.45;1.20;;;;;;;-147.98;100.00;69253.78;5034903;28;20438;-86
2022/10/03 12:57:53;;;;;;;7.00;1.25;;;;;;;-147.98;100.00;69253.78;5023671;28;20407;-87
2022/10/03 13:00:36;;;;;;;6.67;1.30;;;;;;;-147.98;100.00;69253.78;5043694;28;21754;-87
2022/10/03 13:03:29;;;;;;;7.53;1.30;;;;;;;-147.98;100.00;69253.78;5038055;28;20430;-86
2022/10/03 13:06:32;;;;;;;8.55;1.58;;;;;;;-147.98;100.00;69253.78;5020554;28;20429;-87
2022/10/03 13:09:19;;;;;;;6.95;1.50;;;;;;;-147.98;100.00;69253.78;5037269;28;20427;-87
2022/10/03 13:11:58;;;;;;;6.72;1.20;;;;;;;-147.98;100.00;69253.78;5022449;28;20416;-87
2022/10/03 13:14:42;;;;;;;9.13;1.45;;;;;;;-147.98;100.00;69253.78;5063506;28;20415;-87
2022/10/03 13:17:27;;;;;;;7.18;1.55;;;;;;;-147.98;100.00;69253.78;5039856;28;20442;-90
2022/10/03 13:20:02;;;;;;;7.75;1.23;;;;;;;-147.98;100.00;69253.78;5017341;28;21128;-88
2022/10/03 13:22:44;;;;;;;7.93;1.52;;;;;;;-147.98;100.00;69253.78;5018972;28;20788;-88
2022/10/03 13:25:20;;;;;;;8.00;1.53;;;;;;;-147.98;100.00;69253.78;5030035;28;20510;-87